sensor_id;sensor_type;location;lat;lon;timestamp;pressure;altitude;pressure_sealevel;temperature
65316;BMP280;51920;53.952;10.292;2024-01-11T00:01:45;102816.88;;;-0.52
65316;BMP280;51920;53.952;10.292;2024-01-11T00:04:12;102811.78;;;-0.54
65316;BMP280;51920;53.952;10.292;2024-01-11T00:06:43;102815.31;;;-0.48
65316;BMP280;51920;53.952;10.292;2024-01-11T00:09:10;102803.00;;;-0.54
65316;BMP280;51920;53.952;10.292;2024-01-11T00:11:37;102784.94;;;-0.52
65316;BMP280;51920;53.952;10.292;2024-01-11T00:14:04;102791.28;;;-0.53
65316;BMP280;51920;53.952;10.292;2024-01-11T00:16:31;102779.06;;;-0.54
65316;BMP280;51920;53.952;10.292;2024-01-11T00:18:58;102765.44;;;-0.58
65316;BMP280;51920;53.952;10.292;2024-01-11T00:21:25;102771.13;;;-0.49
65316;BMP280;51920;53.952;10.292;2024-01-11T00:23:51;102736.16;;;-0.75
65316;BMP280;51920;53.952;10.292;2024-01-11T00:26:18;102754.16;;;-0.65
65316;BMP280;51920;53.952;10.292;2024-01-11T00:28:45;102740.44;;;-0.74
65316;BMP280;51920;53.952;10.292;2024-01-11T00:31:12;102721.75;;;-0.79
65316;BMP280;51920;53.952;10.292;2024-01-11T00:33:39;102758.72;;;-0.61
65316;BMP280;51920;53.952;10.292;2024-01-11T00:36:06;102737.00;;;-0.74
65316;BMP280;51920;53.952;10.292;2024-01-11T00:38:33;102730.28;;;-0.77
65316;BMP280;51920;53.952;10.292;2024-01-11T00:41:01;102737.88;;;-0.69
65316;BMP280;51920;53.952;10.292;2024-01-11T00:43:28;102747.94;;;-0.71
65316;BMP280;51920;53.952;10.292;2024-01-11T00:45:55;102722.41;;;-0.89
65316;BMP280;51920;53.952;10.292;2024-01-11T00:48:22;102747.38;;;-0.73
65316;BMP280;51920;53.952;10.292;2024-01-11T00:50:48;102723.78;;;-0.86
65316;BMP280;51920;53.952;10.292;2024-01-11T00:53:15;102726.06;;;-0.73
65316;BMP280;51920;53.952;10.292;2024-01-11T00:55:43;102712.66;;;-0.83
65316;BMP280;51920;53.952;10.292;2024-01-11T00:58:10;102720.00;;;-0.90
65316;BMP280;51920;53.952;10.292;2024-01-11T01:00:37;102719.69;;;-0.94
65316;BMP280;51920;53.952;10.292;2024-01-11T01:03:04;102727.06;;;-0.79
65316;BMP280;51920;53.952;10.292;2024-01-11T01:05:31;102710.41;;;-0.91
65316;BMP280;51920;53.952;10.292;2024-01-11T01:07:58;102737.63;;;-0.84
65316;BMP280;51920;53.952;10.292;2024-01-11T01:10:25;102728.00;;;-0.90
65316;BMP280;51920;53.952;10.292;2024-01-11T01:12:52;102716.63;;;-1.03
65316;BMP280;51920;53.952;10.292;2024-01-11T01:15:19;102727.34;;;-0.98
65316;BMP280;51920;53.952;10.292;2024-01-11T01:17:46;102723.75;;;-1.08
65316;BMP280;51920;53.952;10.292;2024-01-11T01:20:13;102736.13;;;-0.97
65316;BMP280;51920;53.952;10.292;2024-01-11T01:22:41;102726.63;;;-1.10
65316;BMP280;51920;53.952;10.292;2024-01-11T01:25:08;102714.31;;;-1.16
65316;BMP280;51920;53.952;10.292;2024-01-11T01:27:35;102746.03;;;-0.92
65316;BMP280;51920;53.952;10.292;2024-01-11T01:30:02;102740.66;;;-0.98
65316;BMP280;51920;53.952;10.292;2024-01-11T01:32:29;102749.84;;;-0.88
65316;BMP280;51920;53.952;10.292;2024-01-11T01:34:57;102750.31;;;-0.91
65316;BMP280;51920;53.952;10.292;2024-01-11T01:37:24;102732.28;;;-1.06
65316;BMP280;51920;53.952;10.292;2024-01-11T01:39:51;102739.28;;;-1.00
65316;BMP280;51920;53.952;10.292;2024-01-11T01:42:17;102721.16;;;-1.20
65316;BMP280;51920;53.952;10.292;2024-01-11T01:44:44;102763.38;;;-1.07
65316;BMP280;51920;53.952;10.292;2024-01-11T01:47:12;102758.88;;;-1.23
65316;BMP280;51920;53.952;10.292;2024-01-11T01:49:39;102764.41;;;-1.25
65316;BMP280;51920;53.952;10.292;2024-01-11T01:52:07;102790.56;;;-1.05
65316;BMP280;51920;53.952;10.292;2024-01-11T01:54:35;102773.22;;;-1.07
65316;BMP280;51920;53.952;10.292;2024-01-11T01:57:02;102776.09;;;-1.09
65316;BMP280;51920;53.952;10.292;2024-01-11T01:59:31;102755.31;;;-1.29
65316;BMP280;51920;53.952;10.292;2024-01-11T02:01:58;102775.00;;;-1.13
65316;BMP280;51920;53.952;10.292;2024-01-11T02:04:25;102770.63;;;-1.19
65316;BMP280;51920;53.952;10.292;2024-01-11T02:06:53;102751.78;;;-1.35
65316;BMP280;51920;53.952;10.292;2024-01-11T02:09:22;102767.72;;;-1.18
65316;BMP280;51920;53.952;10.292;2024-01-11T02:11:51;102778.13;;;-1.16
65316;BMP280;51920;53.952;10.292;2024-01-11T02:14:19;102782.22;;;-1.25
65316;BMP280;51920;53.952;10.292;2024-01-11T02:16:46;102787.88;;;-1.22
65316;BMP280;51920;53.952;10.292;2024-01-11T02:19:13;102785.78;;;-1.20
65316;BMP280;51920;53.952;10.292;2024-01-11T02:21:42;102786.91;;;-1.16
65316;BMP280;51920;53.952;10.292;2024-01-11T02:24:09;102787.41;;;-1.19
65316;BMP280;51920;53.952;10.292;2024-01-11T02:26:36;102787.63;;;-1.20
65316;BMP280;51920;53.952;10.292;2024-01-11T02:29:03;102766.06;;;-1.36
65316;BMP280;51920;53.952;10.292;2024-01-11T02:31:30;102766.75;;;-1.28
65316;BMP280;51920;53.952;10.292;2024-01-11T02:33:57;102772.16;;;-1.23
65316;BMP280;51920;53.952;10.292;2024-01-11T02:36:25;102779.56;;;-1.25
65316;BMP280;51920;53.952;10.292;2024-01-11T02:38:53;102772.06;;;-1.28
65316;BMP280;51920;53.952;10.292;2024-01-11T02:41:20;102777.38;;;-1.28
65316;BMP280;51920;53.952;10.292;2024-01-11T02:43:47;102780.59;;;-1.26
65316;BMP280;51920;53.952;10.292;2024-01-11T02:46:15;102774.16;;;-1.30
65316;BMP280;51920;53.952;10.292;2024-01-11T02:48:43;102771.13;;;-1.22
65316;BMP280;51920;53.952;10.292;2024-01-11T02:51:10;102769.97;;;-1.26
65316;BMP280;51920;53.952;10.292;2024-01-11T02:53:37;102765.97;;;-1.29
65316;BMP280;51920;53.952;10.292;2024-01-11T02:56:04;102771.97;;;-1.34
65316;BMP280;51920;53.952;10.292;2024-01-11T02:58:31;102780.56;;;-1.31
65316;BMP280;51920;53.952;10.292;2024-01-11T03:00:58;102784.34;;;-1.27
65316;BMP280;51920;53.952;10.292;2024-01-11T03:03:24;102778.38;;;-1.35
65316;BMP280;51920;53.952;10.292;2024-01-11T03:05:51;102802.38;;;-1.29
65316;BMP280;51920;53.952;10.292;2024-01-11T03:08:18;102807.38;;;-1.33
65316;BMP280;51920;53.952;10.292;2024-01-11T03:10:45;102821.00;;;-1.29
65316;BMP280;51920;53.952;10.292;2024-01-11T03:13:12;102818.81;;;-1.33
65316;BMP280;51920;53.952;10.292;2024-01-11T03:15:39;102828.97;;;-1.29
65316;BMP280;51920;53.952;10.292;2024-01-11T03:18:06;102807.38;;;-1.33
65316;BMP280;51920;53.952;10.292;2024-01-11T03:20:33;102800.88;;;-1.37
65316;BMP280;51920;53.952;10.292;2024-01-11T03:23:00;102795.91;;;-1.34
65316;BMP280;51920;53.952;10.292;2024-01-11T03:25:29;102789.69;;;-1.39
65316;BMP280;51920;53.952;10.292;2024-01-11T03:27:57;102796.97;;;-1.35
65316;BMP280;51920;53.952;10.292;2024-01-11T03:30:24;102805.28;;;-1.31
65316;BMP280;51920;53.952;10.292;2024-01-11T03:32:51;102797.53;;;-1.33
65316;BMP280;51920;53.952;10.292;2024-01-11T03:35:18;102780.59;;;-1.26
65316;BMP280;51920;53.952;10.292;2024-01-11T03:37:45;102762.84;;;-1.38
65316;BMP280;51920;53.952;10.292;2024-01-11T03:40:12;102752.91;;;-1.30
65316;BMP280;51920;53.952;10.292;2024-01-11T03:42:41;102727.09;;;-1.30
65316;BMP280;51920;53.952;10.292;2024-01-11T03:45:08;102728.97;;;-1.30
65316;BMP280;51920;53.952;10.292;2024-01-11T03:47:35;102734.84;;;-1.28
65316;BMP280;51920;53.952;10.292;2024-01-11T03:50:03;102720.44;;;-1.33
65316;BMP280;51920;53.952;10.292;2024-01-11T03:52:30;102687.78;;;-1.45
65316;BMP280;51920;53.952;10.292;2024-01-11T03:54:57;102698.50;;;-1.40
65316;BMP280;51920;53.952;10.292;2024-01-11T03:57:24;102701.47;;;-1.36
65316;BMP280;51920;53.952;10.292;2024-01-11T03:59:52;102720.78;;;-1.41
65316;BMP280;51920;53.952;10.292;2024-01-11T04:02:19;102658.13;;;-1.71
65316;BMP280;51920;53.952;10.292;2024-01-11T04:04:46;102659.59;;;-1.63
65316;BMP280;51920;53.952;10.292;2024-01-11T04:07:13;102704.09;;;-1.53
65316;BMP280;51920;53.952;10.292;2024-01-11T04:09:42;102736.00;;;-1.53
65316;BMP280;51920;53.952;10.292;2024-01-11T04:12:09;102754.69;;;-1.48
65316;BMP280;51920;53.952;10.292;2024-01-11T04:14:39;102745.03;;;-1.54
65316;BMP280;51920;53.952;10.292;2024-01-11T04:17:07;102714.00;;;-1.65
65316;BMP280;51920;53.952;10.292;2024-01-11T04:19:33;102695.16;;;-1.64
65316;BMP280;51920;53.952;10.292;2024-01-11T04:22:00;102719.69;;;-1.45
65316;BMP280;51920;53.952;10.292;2024-01-11T04:24:27;102712.25;;;-1.43
65316;BMP280;51920;53.952;10.292;2024-01-11T04:26:54;102706.72;;;-1.41
65316;BMP280;51920;53.952;10.292;2024-01-11T04:29:21;102714.34;;;-1.45
65316;BMP280;51920;53.952;10.292;2024-01-11T04:31:48;102711.47;;;-1.43
65316;BMP280;51920;53.952;10.292;2024-01-11T04:34:15;102710.06;;;-1.46
65316;BMP280;51920;53.952;10.292;2024-01-11T04:36:41;102718.63;;;-1.44
65316;BMP280;51920;53.952;10.292;2024-01-11T04:39:08;102721.63;;;-1.40
65316;BMP280;51920;53.952;10.292;2024-01-11T04:41:35;102701.63;;;-1.43
65316;BMP280;51920;53.952;10.292;2024-01-11T04:44:03;102693.66;;;-1.43
65316;BMP280;51920;53.952;10.292;2024-01-11T04:46:30;102697.94;;;-1.42
65316;BMP280;51920;53.952;10.292;2024-01-11T04:48:57;102699.84;;;-1.37
65316;BMP280;51920;53.952;10.292;2024-01-11T04:51:24;102696.16;;;-1.36
65316;BMP280;51920;53.952;10.292;2024-01-11T04:53:51;102680.69;;;-1.39
65316;BMP280;51920;53.952;10.292;2024-01-11T04:56:18;102681.47;;;-1.39
65316;BMP280;51920;53.952;10.292;2024-01-11T04:58:45;102694.88;;;-1.34
65316;BMP280;51920;53.952;10.292;2024-01-11T05:01:14;102705.03;;;-1.30
65316;BMP280;51920;53.952;10.292;2024-01-11T05:03:45;102711.75;;;-1.28
65316;BMP280;51920;53.952;10.292;2024-01-11T05:06:20;102704.25;;;-1.31
65316;BMP280;51920;53.952;10.292;2024-01-11T05:08:49;102722.69;;;-1.24
65316;BMP280;51920;53.952;10.292;2024-01-11T05:11:21;102735.72;;;-1.23
65316;BMP280;51920;53.952;10.292;2024-01-11T05:13:48;102728.50;;;-1.27
65316;BMP280;51920;53.952;10.292;2024-01-11T05:16:26;102715.69;;;-1.30
65316;BMP280;51920;53.952;10.292;2024-01-11T05:18:55;102698.38;;;-1.33
65316;BMP280;51920;53.952;10.292;2024-01-11T05:21:23;102693.69;;;-1.26
65316;BMP280;51920;53.952;10.292;2024-01-11T05:23:50;102666.13;;;-1.37
65316;BMP280;51920;53.952;10.292;2024-01-11T05:26:18;102671.13;;;-1.23
65316;BMP280;51920;53.952;10.292;2024-01-11T05:28:45;102653.06;;;-1.21
65316;BMP280;51920;53.952;10.292;2024-01-11T05:31:14;102650.63;;;-1.23
65316;BMP280;51920;53.952;10.292;2024-01-11T05:33:43;102661.53;;;-1.24
65316;BMP280;51920;53.952;10.292;2024-01-11T05:36:10;102659.59;;;-1.29
65316;BMP280;51920;53.952;10.292;2024-01-11T05:38:39;102682.88;;;-1.19
65316;BMP280;51920;53.952;10.292;2024-01-11T05:41:06;102689.25;;;-1.20
65316;BMP280;51920;53.952;10.292;2024-01-11T05:43:33;102673.28;;;-1.20
65316;BMP280;51920;53.952;10.292;2024-01-11T05:46:00;102673.94;;;-1.13
65316;BMP280;51920;53.952;10.292;2024-01-11T05:48:27;102666.44;;;-1.16
65316;BMP280;51920;53.952;10.292;2024-01-11T05:50:54;102665.94;;;-1.13
65316;BMP280;51920;53.952;10.292;2024-01-11T05:53:21;102667.81;;;-1.13
65316;BMP280;51920;53.952;10.292;2024-01-11T05:55:48;102676.19;;;-1.05
65316;BMP280;51920;53.952;10.292;2024-01-11T05:58:15;102684.00;;;-1.15
65316;BMP280;51920;53.952;10.292;2024-01-11T06:00:42;102701.75;;;-1.21
65316;BMP280;51920;53.952;10.292;2024-01-11T06:03:11;102692.31;;;-1.28
65316;BMP280;51920;53.952;10.292;2024-01-11T06:05:39;102720.38;;;-1.21
65316;BMP280;51920;53.952;10.292;2024-01-11T06:08:06;102706.00;;;-1.20
65316;BMP280;51920;53.952;10.292;2024-01-11T06:10:33;102706.78;;;-1.19
65316;BMP280;51920;53.952;10.292;2024-01-11T06:13:00;102705.28;;;-1.15
65316;BMP280;51920;53.952;10.292;2024-01-11T06:15:27;102693.09;;;-1.11
65316;BMP280;51920;53.952;10.292;2024-01-11T06:17:55;102669.88;;;-1.16
65316;BMP280;51920;53.952;10.292;2024-01-11T06:20:22;102672.47;;;-1.04
65316;BMP280;51920;53.952;10.292;2024-01-11T06:22:49;102655.88;;;-1.11
65316;BMP280;51920;53.952;10.292;2024-01-11T06:25:15;102671.97;;;-1.01
65316;BMP280;51920;53.952;10.292;2024-01-11T06:27:42;102665.03;;;-1.02
65316;BMP280;51920;53.952;10.292;2024-01-11T06:30:10;102687.94;;;-1.01
65316;BMP280;51920;53.952;10.292;2024-01-11T06:32:37;102684.53;;;-0.96
65316;BMP280;51920;53.952;10.292;2024-01-11T06:35:05;102678.25;;;-1.07
65316;BMP280;51920;53.952;10.292;2024-01-11T06:37:35;102688.41;;;-1.04
65316;BMP280;51920;53.952;10.292;2024-01-11T06:40:08;102712.97;;;-0.97
65316;BMP280;51920;53.952;10.292;2024-01-11T06:42:41;102682.31;;;-1.04
65316;BMP280;51920;53.952;10.292;2024-01-11T06:45:09;102698.56;;;-1.01
65316;BMP280;51920;53.952;10.292;2024-01-11T06:47:36;102665.06;;;-1.19
65316;BMP280;51920;53.952;10.292;2024-01-11T06:50:03;102691.16;;;-0.99
65316;BMP280;51920;53.952;10.292;2024-01-11T06:52:30;102709.69;;;-0.87
65316;BMP280;51920;53.952;10.292;2024-01-11T06:54:57;102711.50;;;-0.87
65316;BMP280;51920;53.952;10.292;2024-01-11T06:57:23;102711.09;;;-0.79
65316;BMP280;51920;53.952;10.292;2024-01-11T06:59:51;102704.03;;;-0.90
65316;BMP280;51920;53.952;10.292;2024-01-11T07:02:18;102701.94;;;-0.88
65316;BMP280;51920;53.952;10.292;2024-01-11T07:04:48;102700.63;;;-0.86
65316;BMP280;51920;53.952;10.292;2024-01-11T07:07:15;102693.16;;;-0.67
65316;BMP280;51920;53.952;10.292;2024-01-11T07:09:42;102702.81;;;-0.61
65316;BMP280;51920;53.952;10.292;2024-01-11T07:12:08;102679.97;;;-0.79
65316;BMP280;51920;53.952;10.292;2024-01-11T07:14:35;102700.91;;;-0.65
65316;BMP280;51920;53.952;10.292;2024-01-11T07:17:03;102700.16;;;-0.61
65316;BMP280;51920;53.952;10.292;2024-01-11T07:19:30;102699.34;;;-0.61
65316;BMP280;51920;53.952;10.292;2024-01-11T07:21:57;102701.72;;;-0.65
65316;BMP280;51920;53.952;10.292;2024-01-11T07:24:24;102702.25;;;-0.63
65316;BMP280;51920;53.952;10.292;2024-01-11T07:26:51;102702.81;;;-0.61
65316;BMP280;51920;53.952;10.292;2024-01-11T07:29:18;102710.75;;;-0.66
65316;BMP280;51920;53.952;10.292;2024-01-11T07:31:45;102707.53;;;-0.68
65316;BMP280;51920;53.952;10.292;2024-01-11T07:34:12;102709.00;;;0.44
65316;BMP280;51920;53.952;10.292;2024-01-11T07:36:39;102711.91;;;0.10
65316;BMP280;51920;53.952;10.292;2024-01-11T07:39:06;102723.66;;;-0.13
65316;BMP280;51920;53.952;10.292;2024-01-11T07:41:33;102723.53;;;-0.24
65316;BMP280;51920;53.952;10.292;2024-01-11T07:44:00;102733.88;;;-0.27
65316;BMP280;51920;53.952;10.292;2024-01-11T07:46:27;102726.25;;;-0.41
65316;BMP280;51920;53.952;10.292;2024-01-11T07:48:54;102720.63;;;-0.44
65316;BMP280;51920;53.952;10.292;2024-01-11T07:51:21;102722.75;;;-0.41
65316;BMP280;51920;53.952;10.292;2024-01-11T07:53:48;102714.78;;;-0.41
65316;BMP280;51920;53.952;10.292;2024-01-11T07:56:15;102681.66;;;-0.50
65316;BMP280;51920;53.952;10.292;2024-01-11T07:58:42;102707.41;;;-0.34
65316;BMP280;51920;53.952;10.292;2024-01-11T08:01:09;102716.22;;;-0.33
65316;BMP280;51920;53.952;10.292;2024-01-11T08:03:36;102714.34;;;-0.33
65316;BMP280;51920;53.952;10.292;2024-01-11T08:06:03;102694.38;;;-0.35
65316;BMP280;51920;53.952;10.292;2024-01-11T08:08:30;102685.78;;;-0.38
65316;BMP280;51920;53.952;10.292;2024-01-11T08:10:57;102697.56;;;-0.33
65316;BMP280;51920;53.952;10.292;2024-01-11T08:13:23;102696.84;;;-0.29
65316;BMP280;51920;53.952;10.292;2024-01-11T08:15:50;102705.97;;;-0.25
65316;BMP280;51920;53.952;10.292;2024-01-11T08:18:20;102679.91;;;-0.40
65316;BMP280;51920;53.952;10.292;2024-01-11T08:20:47;102679.13;;;-0.40
65316;BMP280;51920;53.952;10.292;2024-01-11T08:23:15;102695.84;;;-0.23
65316;BMP280;51920;53.952;10.292;2024-01-11T08:25:43;102687.56;;;-0.26
65316;BMP280;51920;53.952;10.292;2024-01-11T08:28:09;102691.56;;;-0.24
65316;BMP280;51920;53.952;10.292;2024-01-11T08:30:37;102687.88;;;-0.23
65316;BMP280;51920;53.952;10.292;2024-01-11T08:33:06;102691.63;;;-0.18
65316;BMP280;51920;53.952;10.292;2024-01-11T08:35:33;102698.66;;;-0.07
65316;BMP280;51920;53.952;10.292;2024-01-11T08:38:00;102684.13;;;-0.22
65316;BMP280;51920;53.952;10.292;2024-01-11T08:40:27;102683.19;;;-0.10
65316;BMP280;51920;53.952;10.292;2024-01-11T08:42:53;102697.94;;;-0.03
65316;BMP280;51920;53.952;10.292;2024-01-11T08:45:20;102675.22;;;-0.10
65316;BMP280;51920;53.952;10.292;2024-01-11T08:47:49;102662.44;;;-0.08
65316;BMP280;51920;53.952;10.292;2024-01-11T08:50:16;102657.34;;;-0.10
65316;BMP280;51920;53.952;10.292;2024-01-11T08:52:43;102676.91;;;0.01
65316;BMP280;51920;53.952;10.292;2024-01-11T08:55:10;102667.66;;;0.09
65316;BMP280;51920;53.952;10.292;2024-01-11T08:57:39;102657.75;;;0.04
65316;BMP280;51920;53.952;10.292;2024-01-11T09:00:06;102656.19;;;0.08
65316;BMP280;51920;53.952;10.292;2024-01-11T09:02:33;102664.19;;;0.08
65316;BMP280;51920;53.952;10.292;2024-01-11T09:05:01;102675.69;;;0.14
65316;BMP280;51920;53.952;10.292;2024-01-11T09:07:29;102686.34;;;0.14
65316;BMP280;51920;53.952;10.292;2024-01-11T09:09:56;102673.84;;;0.14
65316;BMP280;51920;53.952;10.292;2024-01-11T09:12:23;102652.19;;;0.06
65316;BMP280;51920;53.952;10.292;2024-01-11T09:14:50;102652.53;;;0.14
65316;BMP280;51920;53.952;10.292;2024-01-11T09:17:17;102655.00;;;0.26
65316;BMP280;51920;53.952;10.292;2024-01-11T09:19:44;102635.47;;;0.15
65316;BMP280;51920;53.952;10.292;2024-01-11T09:22:11;102656.38;;;0.29
65316;BMP280;51920;53.952;10.292;2024-01-11T09:24:41;102661.16;;;0.27
65316;BMP280;51920;53.952;10.292;2024-01-11T09:27:11;102662.53;;;0.34
65316;BMP280;51920;53.952;10.292;2024-01-11T09:29:45;102644.94;;;0.38
65316;BMP280;51920;53.952;10.292;2024-01-11T09:32:15;102619.91;;;0.40
65316;BMP280;51920;53.952;10.292;2024-01-11T09:34:41;102634.63;;;0.47
65316;BMP280;51920;53.952;10.292;2024-01-11T09:37:11;102645.84;;;0.49
65316;BMP280;51920;53.952;10.292;2024-01-11T09:39:41;102611.09;;;0.34
65316;BMP280;51920;53.952;10.292;2024-01-11T09:42:09;102649.56;;;0.48
65316;BMP280;51920;53.952;10.292;2024-01-11T09:44:44;102610.47;;;0.22
65316;BMP280;51920;53.952;10.292;2024-01-11T09:47:11;102629.25;;;0.42
65316;BMP280;51920;53.952;10.292;2024-01-11T09:49:40;102627.69;;;0.46
65316;BMP280;51920;53.952;10.292;2024-01-11T09:52:08;102619.69;;;0.46
65316;BMP280;51920;53.952;10.292;2024-01-11T09:54:37;102619.16;;;0.49
65316;BMP280;51920;53.952;10.292;2024-01-11T09:57:05;102614.66;;;0.50
65316;BMP280;51920;53.952;10.292;2024-01-11T09:59:34;102629.16;;;0.64
65316;BMP280;51920;53.952;10.292;2024-01-11T10:02:03;102610.13;;;0.50
65316;BMP280;51920;53.952;10.292;2024-01-11T10:04:52;102653.78;;;0.82
65316;BMP280;51920;53.952;10.292;2024-01-11T10:07:24;102630.66;;;0.50
65316;BMP280;51920;53.952;10.292;2024-01-11T10:09:54;102648.03;;;0.57
65316;BMP280;51920;53.952;10.292;2024-01-11T10:12:21;102667.59;;;0.73
65316;BMP280;51920;53.952;10.292;2024-01-11T10:14:51;102677.50;;;0.73
65316;BMP280;51920;53.952;10.292;2024-01-11T10:17:19;102698.28;;;0.76
65316;BMP280;51920;53.952;10.292;2024-01-11T10:19:47;102690.25;;;0.71
65316;BMP280;51920;53.952;10.292;2024-01-11T10:22:14;102707.91;;;0.77
65316;BMP280;51920;53.952;10.292;2024-01-11T10:24:43;102717.59;;;0.88
65316;BMP280;51920;53.952;10.292;2024-01-11T10:27:10;102728.72;;;0.75
65316;BMP280;51920;53.952;10.292;2024-01-11T10:29:37;102708.38;;;0.69
65316;BMP280;51920;53.952;10.292;2024-01-11T10:32:04;102705.97;;;0.67
65316;BMP280;51920;53.952;10.292;2024-01-11T10:34:31;102728.72;;;0.75
65316;BMP280;51920;53.952;10.292;2024-01-11T10:36:59;102723.38;;;0.75
65316;BMP280;51920;53.952;10.292;2024-01-11T10:39:26;102721.75;;;0.74
65316;BMP280;51920;53.952;10.292;2024-01-11T10:42:04;102709.50;;;0.73
65316;BMP280;51920;53.952;10.292;2024-01-11T10:44:33;102710.88;;;0.81
65316;BMP280;51920;53.952;10.292;2024-01-11T10:47:02;102697.56;;;0.86
65316;BMP280;51920;53.952;10.292;2024-01-11T10:49:32;102679.97;;;0.90
65316;BMP280;51920;53.952;10.292;2024-01-11T10:52:02;102645.75;;;0.76
65316;BMP280;51920;53.952;10.292;2024-01-11T10:54:30;102670.69;;;0.98
65316;BMP280;51920;53.952;10.292;2024-01-11T10:57:00;102667.78;;;1.04
65316;BMP280;51920;53.952;10.292;2024-01-11T10:59:28;102665.91;;;1.05
65316;BMP280;51920;53.952;10.292;2024-01-11T11:01:58;102652.56;;;1.00
65316;BMP280;51920;53.952;10.292;2024-01-11T11:04:28;102650.41;;;0.97
65316;BMP280;51920;53.952;10.292;2024-01-11T11:06:58;102657.38;;;1.08
65316;BMP280;51920;53.952;10.292;2024-01-11T11:09:28;102613.75;;;0.76
65316;BMP280;51920;53.952;10.292;2024-01-11T11:11:58;102668.59;;;1.10
65316;BMP280;51920;53.952;10.292;2024-01-11T11:14:25;102637.25;;;0.85
65316;BMP280;51920;53.952;10.292;2024-01-11T11:16:52;102658.97;;;1.04
65316;BMP280;51920;53.952;10.292;2024-01-11T11:19:20;102653.63;;;0.99
65316;BMP280;51920;53.952;10.292;2024-01-11T11:21:48;102641.88;;;1.05
65316;BMP280;51920;53.952;10.292;2024-01-11T11:24:16;102636.88;;;1.19
65316;BMP280;51920;53.952;10.292;2024-01-11T11:26:46;102618.44;;;1.07
65316;BMP280;51920;53.952;10.292;2024-01-11T11:29:15;102635.56;;;1.16
65316;BMP280;51920;53.952;10.292;2024-01-11T11:31:54;102635.28;;;1.18
65316;BMP280;51920;53.952;10.292;2024-01-11T11:34:46;102632.34;;;1.14
65316;BMP280;51920;53.952;10.292;2024-01-11T11:37:22;102642.28;;;1.29
65316;BMP280;51920;53.952;10.292;2024-01-11T11:39:50;102622.25;;;1.26
65316;BMP280;51920;53.952;10.292;2024-01-11T11:42:17;102632.94;;;1.42
65316;BMP280;51920;53.952;10.292;2024-01-11T11:44:48;102645.78;;;1.45
65316;BMP280;51920;53.952;10.292;2024-01-11T11:47:35;102615.59;;;1.39
65316;BMP280;51920;53.952;10.292;2024-01-11T11:50:06;102639.19;;;1.78
65316;BMP280;51920;53.952;10.292;2024-01-11T11:52:43;102618.31;;;1.70
65316;BMP280;51920;53.952;10.292;2024-01-11T11:55:22;102628.22;;;1.69
65316;BMP280;51920;53.952;10.292;2024-01-11T11:57:56;102599.06;;;1.63
65316;BMP280;51920;53.952;10.292;2024-01-11T12:00:32;102589.69;;;1.45
65316;BMP280;51920;53.952;10.292;2024-01-11T12:03:02;102603.59;;;1.52
65316;BMP280;51920;53.952;10.292;2024-01-11T12:05:30;102599.31;;;1.56
65316;BMP280;51920;53.952;10.292;2024-01-11T12:07:58;102601.19;;;1.56
65316;BMP280;51920;53.952;10.292;2024-01-11T12:10:25;102603.06;;;1.55
65316;BMP280;51920;53.952;10.292;2024-01-11T12:12:54;102590.50;;;1.50
65316;BMP280;51920;53.952;10.292;2024-01-11T12:15:27;102610.56;;;1.58
65316;BMP280;51920;53.952;10.292;2024-01-11T12:17:58;102594.53;;;1.53
65316;BMP280;51920;53.952;10.292;2024-01-11T12:20:25;102606.56;;;1.71
65316;BMP280;51920;53.952;10.292;2024-01-11T12:22:52;102602.53;;;1.68
65316;BMP280;51920;53.952;10.292;2024-01-11T12:25:20;102571.81;;;1.61
65316;BMP280;51920;53.952;10.292;2024-01-11T12:27:48;102597.75;;;1.81
65316;BMP280;51920;53.952;10.292;2024-01-11T12:30:18;102604.72;;;1.77
65316;BMP280;51920;53.952;10.292;2024-01-11T12:32:45;102613.78;;;1.81
65316;BMP280;51920;53.952;10.292;2024-01-11T12:35:13;102600.19;;;1.87
65316;BMP280;51920;53.952;10.292;2024-01-11T12:37:40;102597.75;;;1.86
65316;BMP280;51920;53.952;10.292;2024-01-11T12:40:07;102602.31;;;1.96
65316;BMP280;51920;53.952;10.292;2024-01-11T12:42:41;102577.72;;;1.83
65316;BMP280;51920;53.952;10.292;2024-01-11T12:45:08;102606.28;;;1.98
65316;BMP280;51920;53.952;10.292;2024-01-11T12:47:36;102587.59;;;1.93
65316;BMP280;51920;53.952;10.292;2024-01-11T12:50:05;102591.31;;;2.13
65316;BMP280;51920;53.952;10.292;2024-01-11T12:52:34;102585.72;;;2.04
65316;BMP280;51920;53.952;10.292;2024-01-11T12:55:06;102562.50;;;1.84
65316;BMP280;51920;53.952;10.292;2024-01-11T12:57:36;102563.56;;;1.88
65316;BMP280;51920;53.952;10.292;2024-01-11T13:00:11;102573.44;;;1.98
65316;BMP280;51920;53.952;10.292;2024-01-11T13:02:42;102561.13;;;2.07
65316;BMP280;51920;53.952;10.292;2024-01-11T13:05:13;102558.19;;;1.98
65316;BMP280;51920;53.952;10.292;2024-01-11T13:07:43;102552.88;;;1.88
65316;BMP280;51920;53.952;10.292;2024-01-11T13:10:10;102575.00;;;1.99
65316;BMP280;51920;53.952;10.292;2024-01-11T13:12:37;102580.63;;;2.02
65316;BMP280;51920;53.952;10.292;2024-01-11T13:15:05;102580.88;;;2.06
65316;BMP280;51920;53.952;10.292;2024-01-11T13:17:32;102603.06;;;2.22
65316;BMP280;51920;53.952;10.292;2024-01-11T13:19:59;102585.19;;;2.12
65316;BMP280;51920;53.952;10.292;2024-01-11T13:22:26;102568.34;;;1.96
65316;BMP280;51920;53.952;10.292;2024-01-11T13:24:54;102565.16;;;1.94
65316;BMP280;51920;53.952;10.292;2024-01-11T13:27:21;102590.00;;;2.10
65316;BMP280;51920;53.952;10.292;2024-01-11T13:29:55;102585.97;;;2.13
65316;BMP280;51920;53.952;10.292;2024-01-11T13:32:22;102580.88;;;2.06
65316;BMP280;51920;53.952;10.292;2024-01-11T13:34:49;102571.28;;;2.00
65316;BMP280;51920;53.952;10.292;2024-01-11T13:37:20;102576.34;;;2.17
65316;BMP280;51920;53.952;10.292;2024-01-11T13:39:47;102564.63;;;1.97
65316;BMP280;51920;53.952;10.292;2024-01-11T13:42:15;102562.22;;;1.90
65316;BMP280;51920;53.952;10.292;2024-01-11T13:44:42;102586.25;;;1.96
65316;BMP280;51920;53.952;10.292;2024-01-11T13:47:09;102550.75;;;1.80
65316;BMP280;51920;53.952;10.292;2024-01-11T13:49:36;102573.69;;;1.96
65316;BMP280;51920;53.952;10.292;2024-01-11T13:52:04;102577.16;;;1.97
65316;BMP280;51920;53.952;10.292;2024-01-11T13:54:31;102587.06;;;2.06